sensor_id;sensor_type;location;lat;lon;timestamp;pressure;altitude;pressure_sealevel;temperature;humidity
42725;BME280;28369;44.046;23.014;2023-04-22T00:01:31;100864.16;;;21.27;46.29
42725;BME280;28369;44.046;23.014;2023-04-22T00:03:57;100778.25;;;20.80;45.92
42725;BME280;28369;44.046;23.014;2023-04-22T00:06:23;100756.38;;;20.48;46.34
42725;BME280;28369;44.046;23.014;2023-04-22T00:08:49;100612.16;;;19.55;46.36
42725;BME280;28369;44.046;23.014;2023-04-22T00:11:14;100854.25;;;21.21;46.40
42725;BME280;28369;44.046;23.014;2023-04-22T00:13:40;100784.75;;;20.49;46.98
42725;BME280;28369;44.046;23.014;2023-04-22T00:16:06;100767.66;;;20.44;46.79
42725;BME280;28369;44.046;23.014;2023-04-22T00:18:34;100855.78;;;21.09;46.67
42725;BME280;28369;44.046;23.014;2023-04-22T00:21:00;100854.03;;;21.22;46.27
42725;BME280;28369;44.046;23.014;2023-04-22T00:23:26;100842.41;;;21.09;46.00
42725;BME280;28369;44.046;23.014;2023-04-22T00:25:52;100763.19;;;20.29;46.32
42725;BME280;28369;44.046;23.014;2023-04-22T00:28:17;100867.31;;;21.09;46.48
42725;BME280;28369;44.046;23.014;2023-04-22T00:30:43;100873.66;;;21.08;46.49
42725;BME280;28369;44.046;23.014;2023-04-22T00:33:08;100754.09;;;20.24;46.63
42725;BME280;28369;44.046;23.014;2023-04-22T00:35:34;100761.81;;;20.33;46.85
42725;BME280;28369;44.046;23.014;2023-04-22T00:37:59;100830.13;;;20.49;47.37
42725;BME280;28369;44.046;23.014;2023-04-22T00:40:25;100685.19;;;19.76;46.94
42725;BME280;28369;44.046;23.014;2023-04-22T00:42:51;100476.38;;;18.44;47.02
42725;BME280;28369;44.046;23.014;2023-04-22T00:45:18;100695.25;;;19.74;47.41
42725;BME280;28369;44.046;23.014;2023-04-22T00:47:44;100659.44;;;19.46;47.40
42725;BME280;28369;44.046;23.014;2023-04-22T00:50:10;100874.19;;;20.60;48.11
42725;BME280;28369;44.046;23.014;2023-04-22T00:52:36;100860.28;;;20.65;47.95
42725;BME280;28369;44.046;23.014;2023-04-22T00:55:02;100651.25;;;19.48;47.50
42725;BME280;28369;44.046;23.014;2023-04-22T00:57:29;100787.44;;;20.13;47.95
42725;BME280;28369;44.046;23.014;2023-04-22T00:59:55;100708.78;;;19.57;48.11
42725;BME280;28369;44.046;23.014;2023-04-22T01:02:21;100835.03;;;20.46;47.85
42725;BME280;28369;44.046;23.014;2023-04-22T01:04:47;100840.34;;;20.46;47.75
42725;BME280;28369;44.046;23.014;2023-04-22T01:07:13;100861.69;;;20.61;47.39
42725;BME280;28369;44.046;23.014;2023-04-22T01:09:39;100758.69;;;19.78;47.65
42725;BME280;28369;44.046;23.014;2023-04-22T01:12:05;100735.91;;;19.61;47.80
42725;BME280;28369;44.046;23.014;2023-04-22T01:14:30;100822.78;;;20.15;47.71
42725;BME280;28369;44.046;23.014;2023-04-22T01:16:56;100807.47;;;20.24;47.56
42725;BME280;28369;44.046;23.014;2023-04-22T01:19:22;100596.19;;;18.89;47.32
42725;BME280;28369;44.046;23.014;2023-04-22T01:21:52;100497.78;;;18.51;47.29
42725;BME280;28369;44.046;23.014;2023-04-22T01:24:18;100858.41;;;20.80;46.56
42725;BME280;28369;44.046;23.014;2023-04-22T01:26:45;100920.56;;;21.11;46.37
42725;BME280;28369;44.046;23.014;2023-04-22T01:29:11;100782.84;;;20.65;45.91
42725;BME280;28369;44.046;23.014;2023-04-22T01:31:37;100818.25;;;20.95;45.94
42725;BME280;28369;44.046;23.014;2023-04-22T01:34:02;100829.44;;;21.05;45.72
42725;BME280;28369;44.046;23.014;2023-04-22T01:36:28;100809.28;;;21.03;45.47
42725;BME280;28369;44.046;23.014;2023-04-22T01:38:54;100623.31;;;19.44;46.01
42725;BME280;28369;44.046;23.014;2023-04-22T01:41:19;100567.13;;;19.24;45.84
42725;BME280;28369;44.046;23.014;2023-04-22T01:43:45;100601.91;;;19.37;45.98
42725;BME280;28369;44.046;23.014;2023-04-22T01:46:11;100869.97;;;20.87;46.65
42725;BME280;28369;44.046;23.014;2023-04-22T01:48:37;100640.41;;;19.34;46.47
42725;BME280;28369;44.046;23.014;2023-04-22T01:51:02;100884.31;;;20.80;46.58
42725;BME280;28369;44.046;23.014;2023-04-22T01:53:29;100820.69;;;20.32;46.27
42725;BME280;28369;44.046;23.014;2023-04-22T01:55:54;100894.16;;;20.79;46.09
42725;BME280;28369;44.046;23.014;2023-04-22T01:58:20;100635.69;;;19.15;46.41
42725;BME280;28369;44.046;23.014;2023-04-22T02:00:45;100738.22;;;19.64;46.60
42725;BME280;28369;44.046;23.014;2023-04-22T02:03:12;100613.44;;;18.78;46.74
42725;BME280;28369;44.046;23.014;2023-04-22T02:05:38;100622.25;;;18.78;46.81
42725;BME280;28369;44.046;23.014;2023-04-22T02:08:04;100592.63;;;18.28;47.14
42725;BME280;28369;44.046;23.014;2023-04-22T02:10:29;100896.53;;;20.37;46.41
42725;BME280;28369;44.046;23.014;2023-04-22T02:12:55;100856.16;;;20.26;46.41
42725;BME280;28369;44.046;23.014;2023-04-22T02:15:21;100867.31;;;20.14;46.38
42725;BME280;28369;44.046;23.014;2023-04-22T02:17:47;100883.59;;;20.19;46.40
42725;BME280;28369;44.046;23.014;2023-04-22T02:20:12;100754.56;;;19.16;47.20
42725;BME280;28369;44.046;23.014;2023-04-22T02:22:39;100848.91;;;19.60;47.36
42725;BME280;28369;44.046;23.014;2023-04-22T02:25:07;100861.69;;;19.49;48.08
42725;BME280;28369;44.046;23.014;2023-04-22T02:27:32;100741.03;;;18.64;48.12
42725;BME280;28369;44.046;23.014;2023-04-22T02:29:58;100835.47;;;19.38;47.95
42725;BME280;28369;44.046;23.014;2023-04-22T02:32:23;100804.38;;;19.30;47.67
42725;BME280;28369;44.046;23.014;2023-04-22T02:34:49;100886.19;;;19.83;47.83
42725;BME280;28369;44.046;23.014;2023-04-22T02:37:15;100891.91;;;19.80;47.78
42725;BME280;28369;44.046;23.014;2023-04-22T02:39:40;100619.22;;;18.13;47.99
42725;BME280;28369;44.046;23.014;2023-04-22T02:42:06;100602.88;;;18.17;47.68
42725;BME280;28369;44.046;23.014;2023-04-22T02:44:32;100596.69;;;18.01;48.13
42725;BME280;28369;44.046;23.014;2023-04-22T02:46:57;100861.50;;;19.66;48.01
42725;BME280;28369;44.046;23.014;2023-04-22T02:49:23;100604.88;;;18.14;47.70
42725;BME280;28369;44.046;23.014;2023-04-22T02:51:48;100808.94;;;19.45;47.92
42725;BME280;28369;44.046;23.014;2023-04-22T02:54:14;100782.31;;;19.22;47.84
42725;BME280;28369;44.046;23.014;2023-04-22T02:56:39;100739.44;;;19.16;47.77
42725;BME280;28369;44.046;23.014;2023-04-22T02:59:05;100882.22;;;20.09;47.37
42725;BME280;28369;44.046;23.014;2023-04-22T03:01:30;100581.81;;;18.30;47.29
42725;BME280;28369;44.046;23.014;2023-04-22T03:03:56;100789.78;;;19.41;47.54
42725;BME280;28369;44.046;23.014;2023-04-22T03:06:21;100617.63;;;18.42;47.31
42725;BME280;28369;44.046;23.014;2023-04-22T03:08:47;100637.31;;;18.56;47.16
42725;BME280;28369;44.046;23.014;2023-04-22T03:11:13;100899.41;;;19.76;48.00
42725;BME280;28369;44.046;23.014;2023-04-22T03:13:38;100771.66;;;19.07;47.68
42725;BME280;28369;44.046;23.014;2023-04-22T03:16:04;100787.38;;;19.16;48.06
42725;BME280;28369;44.046;23.014;2023-04-22T03:18:30;100833.25;;;19.42;47.84
42725;BME280;28369;44.046;23.014;2023-04-22T03:20:55;100852.19;;;19.85;47.32
42725;BME280;28369;44.046;23.014;2023-04-22T03:23:21;100782.41;;;19.43;46.90
42725;BME280;28369;44.046;23.014;2023-04-22T03:25:46;100681.75;;;18.86;47.10
42725;BME280;28369;44.046;23.014;2023-04-22T03:28:12;100618.25;;;18.44;47.03
42725;BME280;28369;44.046;23.014;2023-04-22T03:30:38;100846.66;;;19.87;47.01
42725;BME280;28369;44.046;23.014;2023-04-22T03:33:03;100646.00;;;18.50;47.17
42725;BME280;28369;44.046;23.014;2023-04-22T03:35:29;100659.59;;;18.70;46.99
42725;BME280;28369;44.046;23.014;2023-04-22T03:37:55;100891.31;;;20.14;47.28
42725;BME280;28369;44.046;23.014;2023-04-22T03:40:20;100812.22;;;19.62;47.06
42725;BME280;28369;44.046;23.014;2023-04-22T03:42:46;100633.53;;;18.51;47.42
42725;BME280;28369;44.046;23.014;2023-04-22T03:45:11;100929.06;;;20.11;47.94
42725;BME280;28369;44.046;23.014;2023-04-22T03:47:37;100917.88;;;20.37;47.47
42725;BME280;28369;44.046;23.014;2023-04-22T03:50:02;100758.28;;;19.45;47.13
42725;BME280;28369;44.046;23.014;2023-04-22T03:52:28;100610.50;;;18.58;46.86
42725;BME280;28369;44.046;23.014;2023-04-22T03:54:53;100628.03;;;18.67;47.21
42725;BME280;28369;44.046;23.014;2023-04-22T03:57:19;100841.94;;;20.03;46.57
42725;BME280;28369;44.046;23.014;2023-04-22T03:59:44;100936.03;;;20.72;46.59
42725;BME280;28369;44.046;23.014;2023-04-22T04:02:10;100941.44;;;20.64;46.63
42725;BME280;28369;44.046;23.014;2023-04-22T04:04:35;100807.78;;;19.69;46.62
42725;BME280;28369;44.046;23.014;2023-04-22T04:07:01;100817.84;;;19.67;47.03
42725;BME280;28369;44.046;23.014;2023-04-22T04:09:27;100788.97;;;19.56;46.80
42725;BME280;28369;44.046;23.014;2023-04-22T04:11:52;100671.72;;;18.73;46.82
42725;BME280;28369;44.046;23.014;2023-04-22T04:14:18;100711.28;;;17.12;49.75
42725;BME280;28369;44.046;23.014;2023-04-22T04:16:43;100896.34;;;17.53;53.28
42725;BME280;28369;44.046;23.014;2023-04-22T04:19:09;100961.19;;;18.24;53.30
42725;BME280;28369;44.046;23.014;2023-04-22T04:21:34;100891.59;;;18.04;52.70
42725;BME280;28369;44.046;23.014;2023-04-22T04:24:01;100954.22;;;18.23;53.19
42725;BME280;28369;44.046;23.014;2023-04-22T04:26:27;100928.97;;;18.19;53.48
42725;BME280;28369;44.046;23.014;2023-04-22T04:28:52;100910.53;;;18.09;54.58
42725;BME280;28369;44.046;23.014;2023-04-22T04:31:18;100763.94;;;17.56;53.71
42725;BME280;28369;44.046;23.014;2023-04-22T04:33:44;100961.41;;;19.17;53.00
42725;BME280;28369;44.046;23.014;2023-04-22T04:36:11;100972.00;;;19.48;52.26
42725;BME280;28369;44.046;23.014;2023-04-22T04:38:36;100964.91;;;19.79;51.78
42725;BME280;28369;44.046;23.014;2023-04-22T04:41:02;100954.34;;;20.00;50.85
42725;BME280;28369;44.046;23.014;2023-04-22T04:43:28;100986.63;;;19.52;52.28
42725;BME280;28369;44.046;23.014;2023-04-22T04:45:53;100965.41;;;19.82;51.67
42725;BME280;28369;44.046;23.014;2023-04-22T04:48:19;100897.66;;;19.54;51.10
42725;BME280;28369;44.046;23.014;2023-04-22T04:50:45;100824.81;;;19.00;51.15
42725;BME280;28369;44.046;23.014;2023-04-22T04:53:11;100942.22;;;19.45;52.94
42725;BME280;28369;44.046;23.014;2023-04-22T04:55:37;100948.91;;;19.79;52.28
42725;BME280;28369;44.046;23.014;2023-04-22T04:58:03;100990.94;;;20.15;52.22
42725;BME280;28369;44.046;23.014;2023-04-22T05:00:29;100968.00;;;19.67;53.41
42725;BME280;28369;44.046;23.014;2023-04-22T05:02:54;100903.63;;;19.56;52.88
42725;BME280;28369;44.046;23.014;2023-04-22T05:05:20;100609.97;;;17.55;53.54
42725;BME280;28369;44.046;23.014;2023-04-22T05:07:45;100838.78;;;19.40;52.17
42725;BME280;28369;44.046;23.014;2023-04-22T05:10:11;101023.09;;;20.13;53.44
42725;BME280;28369;44.046;23.014;2023-04-22T05:12:36;100860.28;;;19.24;52.90
42725;BME280;28369;44.046;23.014;2023-04-22T05:15:02;100984.34;;;20.47;52.33
42725;BME280;28369;44.046;23.014;2023-04-22T05:17:28;100918.66;;;20.31;51.48
42725;BME280;28369;44.046;23.014;2023-04-22T05:19:54;100968.03;;;21.30;50.43
42725;BME280;28369;44.046;23.014;2023-04-22T05:22:20;100974.94;;;21.89;48.94
42725;BME280;28369;44.046;23.014;2023-04-22T05:24:45;100930.44;;;21.88;48.38
42725;BME280;28369;44.046;23.014;2023-04-22T05:27:11;100922.38;;;22.23;47.53
42725;BME280;28369;44.046;23.014;2023-04-22T05:29:37;100749.56;;;21.59;46.67
42725;BME280;28369;44.046;23.014;2023-04-22T05:32:02;100975.63;;;22.88;46.75
42725;BME280;28369;44.046;23.014;2023-04-22T05:34:28;100951.09;;;22.98;46.43
42725;BME280;28369;44.046;23.014;2023-04-22T05:36:53;100955.66;;;23.04;45.30
42725;BME280;28369;44.046;23.014;2023-04-22T05:39:19;100797.69;;;22.63;44.55
42725;BME280;28369;44.046;23.014;2023-04-22T05:41:44;100960.66;;;23.74;44.22
42725;BME280;28369;44.046;23.014;2023-04-22T05:44:28;101025.88;;;24.15;44.23
42725;BME280;28369;44.046;23.014;2023-04-22T05:46:54;100914.84;;;23.56;43.74
42725;BME280;28369;44.046;23.014;2023-04-22T05:49:19;100985.41;;;24.03;43.57
42725;BME280;28369;44.046;23.014;2023-04-22T05:51:45;100922.88;;;23.89;43.56
42725;BME280;28369;44.046;23.014;2023-04-22T05:54:10;100879.97;;;23.56;44.15
42725;BME280;28369;44.046;23.014;2023-04-22T05:56:36;100977.78;;;24.00;43.65
42725;BME280;28369;44.046;23.014;2023-04-22T05:59:01;101010.34;;;24.30;43.77
42725;BME280;28369;44.046;23.014;2023-04-22T06:01:27;100982.91;;;24.15;43.62
42725;BME280;28369;44.046;23.014;2023-04-22T06:03:53;100973.72;;;24.43;43.79
42725;BME280;28369;44.046;23.014;2023-04-22T06:06:18;100968.13;;;24.51;43.02
42725;BME280;28369;44.046;23.014;2023-04-22T06:08:44;101025.28;;;25.17;42.29
42725;BME280;28369;44.046;23.014;2023-04-22T06:11:09;101016.44;;;25.10;41.60
42725;BME280;28369;44.046;23.014;2023-04-22T06:13:35;101033.38;;;25.17;42.00
42725;BME280;28369;44.046;23.014;2023-04-22T06:16:00;100801.28;;;23.69;42.47
42725;BME280;28369;44.046;23.014;2023-04-22T06:18:26;100780.97;;;23.27;42.55
42725;BME280;28369;44.046;23.014;2023-04-22T06:20:51;101051.91;;;24.21;43.02
42725;BME280;28369;44.046;23.014;2023-04-22T06:23:17;100921.66;;;23.18;43.02
42725;BME280;28369;44.046;23.014;2023-04-22T06:25:42;101032.88;;;24.16;43.30
42725;BME280;28369;44.046;23.014;2023-04-22T06:28:08;100977.28;;;24.23;43.08
42725;BME280;28369;44.046;23.014;2023-04-22T06:30:34;100924.56;;;24.36;41.90
42725;BME280;28369;44.046;23.014;2023-04-22T06:32:59;100957.97;;;24.53;41.52
42725;BME280;28369;44.046;23.014;2023-04-22T06:35:25;100899.53;;;24.80;39.94
42725;BME280;28369;44.046;23.014;2023-04-22T06:37:51;100926.13;;;24.57;40.55
42725;BME280;28369;44.046;23.014;2023-04-22T06:40:16;100825.25;;;24.61;40.99
42725;BME280;28369;44.046;23.014;2023-04-22T06:42:42;101028.50;;;25.90;39.18
42725;BME280;28369;44.046;23.014;2023-04-22T06:45:08;100960.97;;;25.41;39.40
42725;BME280;28369;44.046;23.014;2023-04-22T06:47:39;100944.69;;;24.72;40.39
42725;BME280;28369;44.046;23.014;2023-04-22T06:50:09;101021.16;;;24.82;41.08
42725;BME280;28369;44.046;23.014;2023-04-22T06:52:34;100936.47;;;24.53;41.38
42725;BME280;28369;44.046;23.014;2023-04-22T06:55:00;100942.03;;;24.65;40.64
42725;BME280;28369;44.046;23.014;2023-04-22T06:57:27;100959.72;;;25.43;39.31
42725;BME280;28369;44.046;23.014;2023-04-22T06:59:53;100957.97;;;24.98;39.39
42725;BME280;28369;44.046;23.014;2023-04-22T07:02:18;100961.94;;;24.89;39.61
42725;BME280;28369;44.046;23.014;2023-04-22T07:04:44;101027.50;;;25.27;39.98
42725;BME280;28369;44.046;23.014;2023-04-22T07:07:10;100923.88;;;23.75;40.97
42725;BME280;28369;44.046;23.014;2023-04-22T07:09:35;100965.09;;;24.27;39.17
42725;BME280;28369;44.046;23.014;2023-04-22T07:12:01;100890.41;;;23.97;37.82
42725;BME280;28369;44.046;23.014;2023-04-22T07:14:26;101043.63;;;25.33;38.25
42725;BME280;28369;44.046;23.014;2023-04-22T07:16:52;100984.69;;;24.48;38.89
42725;BME280;28369;44.046;23.014;2023-04-22T07:19:17;100972.06;;;24.42;39.13
42725;BME280;28369;44.046;23.014;2023-04-22T07:21:43;101035.88;;;25.12;39.92
42725;BME280;28369;44.046;23.014;2023-04-22T07:24:09;100920.44;;;24.78;38.82
42725;BME280;28369;44.046;23.014;2023-04-22T07:26:38;101065.34;;;25.89;37.40
42725;BME280;28369;44.046;23.014;2023-04-22T07:29:04;101093.84;;;26.03;38.66
42725;BME280;28369;44.046;23.014;2023-04-22T07:31:29;101016.59;;;25.97;37.51
42725;BME280;28369;44.046;23.014;2023-04-22T07:33:55;100988.09;;;25.90;37.74
42725;BME280;28369;44.046;23.014;2023-04-22T07:36:20;101089.25;;;26.29;37.51
42725;BME280;28369;44.046;23.014;2023-04-22T07:38:46;100985.88;;;25.61;36.52
42725;BME280;28369;44.046;23.014;2023-04-22T07:41:12;101035.50;;;25.91;36.96
42725;BME280;28369;44.046;23.014;2023-04-22T07:43:37;100973.53;;;25.22;36.46
42725;BME280;28369;44.046;23.014;2023-04-22T07:46:03;101038.50;;;25.57;37.64
42725;BME280;28369;44.046;23.014;2023-04-22T07:48:29;100713.81;;;23.61;35.93
42725;BME280;28369;44.046;23.014;2023-04-22T07:50:54;101098.19;;;25.47;36.36
42725;BME280;28369;44.046;23.014;2023-04-22T07:53:19;100990.22;;;24.66;37.76
42725;BME280;28369;44.046;23.014;2023-04-22T07:55:45;100922.81;;;24.93;37.98
42725;BME280;28369;44.046;23.014;2023-04-22T07:58:11;101039.50;;;25.88;36.20
42725;BME280;28369;44.046;23.014;2023-04-22T08:00:36;100860.66;;;23.99;36.88
42725;BME280;28369;44.046;23.014;2023-04-22T08:03:02;101067.50;;;25.55;37.22
42725;BME280;28369;44.046;23.014;2023-04-22T08:05:27;100963.47;;;25.42;37.55
42725;BME280;28369;44.046;23.014;2023-04-22T08:07:53;101097.94;;;26.13;37.49
42725;BME280;28369;44.046;23.014;2023-04-22T08:10:19;100927.22;;;25.45;37.68
42725;BME280;28369;44.046;23.014;2023-04-22T08:12:44;101015.63;;;26.17;35.13
42725;BME280;28369;44.046;23.014;2023-04-22T08:15:10;100976.81;;;25.81;35.06
42725;BME280;28369;44.046;23.014;2023-04-22T08:17:36;101026.84;;;26.51;35.17
42725;BME280;28369;44.046;23.014;2023-04-22T08:20:03;101098.44;;;26.65;34.81
42725;BME280;28369;44.046;23.014;2023-04-22T08:22:28;100946.09;;;26.07;33.89
42725;BME280;28369;44.046;23.014;2023-04-22T08:24:54;101098.91;;;26.62;33.63
42725;BME280;28369;44.046;23.014;2023-04-22T08:27:20;100926.44;;;25.12;34.87
42725;BME280;28369;44.046;23.014;2023-04-22T08:29:46;101040.47;;;26.37;36.52
42725;BME280;28369;44.046;23.014;2023-04-22T08:32:12;101000.31;;;26.48;35.70
42725;BME280;28369;44.046;23.014;2023-04-22T08:34:37;101037.78;;;26.75;34.45
42725;BME280;28369;44.046;23.014;2023-04-22T08:37:03;101100.94;;;27.34;32.73
42725;BME280;28369;44.046;23.014;2023-04-22T08:39:28;100981.03;;;26.69;32.30
42725;BME280;28369;44.046;23.014;2023-04-22T08:41:55;101031.59;;;27.04;31.96
42725;BME280;28369;44.046;23.014;2023-04-22T08:44:21;101084.41;;;27.42;31.47
42725;BME280;28369;44.046;23.014;2023-04-22T08:46:47;101092.47;;;27.12;32.07
42725;BME280;28369;44.046;23.014;2023-04-22T08:49:17;101092.66;;;27.29;32.31
42725;BME280;28369;44.046;23.014;2023-04-22T08:51:44;100914.50;;;26.33;34.20
42725;BME280;28369;44.046;23.014;2023-04-22T08:54:10;101063.69;;;26.57;33.74
42725;BME280;28369;44.046;23.014;2023-04-22T08:56:40;101031.16;;;26.89;33.25
42725;BME280;28369;44.046;23.014;2023-04-22T08:59:09;101032.22;;;26.88;32.28
42725;BME280;28369;44.046;23.014;2023-04-22T09:01:36;100973.81;;;26.63;33.53
42725;BME280;28369;44.046;23.014;2023-04-22T09:04:03;100950.56;;;26.81;32.40
42725;BME280;28369;44.046;23.014;2023-04-22T09:06:31;101014.88;;;26.65;32.58
42725;BME280;28369;44.046;23.014;2023-04-22T09:08:56;100997.69;;;27.08;33.06
42725;BME280;28369;44.046;23.014;2023-04-22T09:11:26;100982.94;;;27.23;31.87
42725;BME280;28369;44.046;23.014;2023-04-22T09:13:53;100793.78;;;25.56;32.83
42725;BME280;28369;44.046;23.014;2023-04-22T09:16:18;101092.66;;;27.29;34.34
42725;BME280;28369;44.046;23.014;2023-04-22T09:18:44;101101.03;;;27.09;32.80
42725;BME280;28369;44.046;23.014;2023-04-22T09:21:12;100994.59;;;26.93;32.14
42725;BME280;28369;44.046;23.014;2023-04-22T09:23:45;101078.50;;;27.88;32.17
42725;BME280;28369;44.046;23.014;2023-04-22T09:26:11;101050.06;;;27.62;32.52
42725;BME280;28369;44.046;23.014;2023-04-22T09:28:36;100905.47;;;26.88;31.65
42725;BME280;28369;44.046;23.014;2023-04-22T09:31:02;101072.38;;;27.57;32.54
42725;BME280;28369;44.046;23.014;2023-04-22T09:33:30;101038.31;;;27.68;32.94
42725;BME280;28369;44.046;23.014;2023-04-22T09:35:56;100989.38;;;27.64;33.47
42725;BME280;28369;44.046;23.014;2023-04-22T09:38:21;101027.31;;;27.93;32.85
42725;BME280;28369;44.046;23.014;2023-04-22T09:40:47;101009.34;;;27.87;30.71
42725;BME280;28369;44.046;23.014;2023-04-22T09:43:17;101062.31;;;28.12;32.63
42725;BME280;28369;44.046;23.014;2023-04-22T09:45:43;101007.91;;;27.49;33.42
42725;BME280;28369;44.046;23.014;2023-04-22T09:48:18;100973.50;;;27.56;33.55
42725;BME280;28369;44.046;23.014;2023-04-22T09:50:49;101035.78;;;28.08;31.90
42725;BME280;28369;44.046;23.014;2023-04-22T09:53:16;101055.47;;;28.44;32.73
42725;BME280;28369;44.046;23.014;2023-04-22T09:55:50;101036.91;;;28.48;31.14
42725;BME280;28369;44.046;23.014;2023-04-22T09:58:18;101015.41;;;28.41;31.42
42725;BME280;28369;44.046;23.014;2023-04-22T10:00:45;100783.50;;;26.86;30.97
42725;BME280;28369;44.046;23.014;2023-04-22T10:03:12;101001.91;;;28.18;30.91
42725;BME280;28369;44.046;23.014;2023-04-22T10:05:37;100996.13;;;28.38;31.41
42725;BME280;28369;44.046;23.014;2023-04-22T10:08:08;100871.97;;;27.55;31.46
42725;BME280;28369;44.046;23.014;2023-04-22T10:10:36;101016.16;;;28.13;32.89
42725;BME280;28369;44.046;23.014;2023-04-22T10:13:02;100962.09;;;28.13;31.51
42725;BME280;28369;44.046;23.014;2023-04-22T10:15:41;100983.25;;;28.16;32.73
42725;BME280;28369;44.046;23.014;2023-04-22T10:18:11;100902.13;;;27.75;31.65
42725;BME280;28369;44.046;23.014;2023-04-22T10:20:40;100930.28;;;28.03;30.97
42725;BME280;28369;44.046;23.014;2023-04-22T10:23:13;101036.91;;;28.36;30.50
42725;BME280;28369;44.046;23.014;2023-04-22T10:25:40;100978.97;;;28.32;32.45
42725;BME280;28369;44.046;23.014;2023-04-22T10:28:08;101005.13;;;28.67;30.74
42725;BME280;28369;44.046;23.014;2023-04-22T10:30:38;101011.81;;;28.93;30.70
42725;BME280;28369;44.046;23.014;2023-04-22T10:36:06;100911.31;;;28.27;31.09
42725;BME280;28369;44.046;23.014;2023-04-22T10:41:01;100946.84;;;29.05;30.99
42725;BME280;28369;44.046;23.014;2023-04-22T10:43:46;100938.28;;;29.13;31.23
42725;BME280;28369;44.046;23.014;2023-04-22T10:49:12;100919.88;;;28.65;30.19
42725;BME280;28369;44.046;23.014;2023-04-22T10:52:09;100956.63;;;28.77;31.14
42725;BME280;28369;44.046;23.014;2023-04-22T10:57:20;100968.69;;;29.33;31.15
42725;BME280;28369;44.046;23.014;2023-04-22T10:59:51;100707.38;;;27.89;30.22
42725;BME280;28369;44.046;23.014;2023-04-22T11:02:17;100975.06;;;29.43;30.25
42725;BME280;28369;44.046;23.014;2023-04-22T11:04:45;100942.28;;;29.23;30.19
42725;BME280;28369;44.046;23.014;2023-04-22T11:10:07;100963.75;;;29.46;29.94
42725;BME280;28369;44.046;23.014;2023-04-22T11:12:40;100974.75;;;29.74;29.41
42725;BME280;28369;44.046;23.014;2023-04-22T11:15:14;100969.50;;;29.33;30.02
42725;BME280;28369;44.046;23.014;2023-04-22T11:17:46;100917.34;;;28.46;29.47
42725;BME280;28369;44.046;23.014;2023-04-22T11:20:13;100983.38;;;29.08;30.57
42725;BME280;28369;44.046;23.014;2023-04-22T11:22:45;100932.13;;;28.84;30.06
42725;BME280;28369;44.046;23.014;2023-04-22T11:25:11;100965.94;;;29.16;29.34
42725;BME280;28369;44.046;23.014;2023-04-22T11:27:38;100932.16;;;29.01;29.72
42725;BME280;28369;44.046;23.014;2023-04-22T11:30:18;100882.78;;;28.48;29.52
42725;BME280;28369;44.046;23.014;2023-04-22T11:32:46;100949.53;;;29.05;29.18
42725;BME280;28369;44.046;23.014;2023-04-22T11:35:14;100957.03;;;29.32;29.43
42725;BME280;28369;44.046;23.014;2023-04-22T11:37:48;100860.50;;;28.58;30.28
42725;BME280;28369;44.046;23.014;2023-04-22T11:40:19;100885.75;;;28.75;30.24
42725;BME280;28369;44.046;23.014;2023-04-22T11:42:47;100911.97;;;28.92;29.37
42725;BME280;28369;44.046;23.014;2023-04-22T11:45:12;100875.47;;;28.77;30.06
42725;BME280;28369;44.046;23.014;2023-04-22T11:47:39;100862.28;;;28.64;30.38
42725;BME280;28369;44.046;23.014;2023-04-22T11:50:07;100922.59;;;29.27;28.19
42725;BME280;28369;44.046;23.014;2023-04-22T11:52:55;100927.31;;;29.20;28.05
42725;BME280;28369;44.046;23.014;2023-04-22T11:55:24;100960.31;;;29.34;29.60
42725;BME280;28369;44.046;23.014;2023-04-22T11:58:16;100850.25;;;28.89;29.27
42725;BME280;28369;44.046;23.014;2023-04-22T12:00:47;100881.41;;;28.91;29.62
42725;BME280;28369;44.046;23.014;2023-04-22T12:03:15;100972.28;;;29.55;28.50
42725;BME280;28369;44.046;23.014;2023-04-22T12:05:45;100987.44;;;29.90;28.96
42725;BME280;28369;44.046;23.014;2023-04-22T12:08:16;100990.25;;;30.17;27.38
42725;BME280;28369;44.046;23.014;2023-04-22T12:10:54;100916.75;;;30.14;26.55
42725;BME280;28369;44.046;23.014;2023-04-22T12:13:28;100918.44;;;30.70;27.03
42725;BME280;28369;44.046;23.014;2023-04-22T12:16:02;100855.78;;;30.71;26.73
42725;BME280;28369;44.046;23.014;2023-04-22T12:18:33;100936.56;;;31.24;25.74
42725;BME280;28369;44.046;23.014;2023-04-22T12:23:25;100947.78;;;30.73;26.80
42725;BME280;28369;44.046;23.014;2023-04-22T12:25:52;100989.31;;;31.00;26.64
42725;BME280;28369;44.046;23.014;2023-04-22T12:28:18;100958.44;;;30.35;26.71
42725;BME280;28369;44.046;23.014;2023-04-22T12:30:43;100956.03;;;30.61;25.89
42725;BME280;28369;44.046;23.014;2023-04-22T12:33:09;100965.84;;;30.40;25.92
42725;BME280;28369;44.046;23.014;2023-04-22T12:35:35;100990.50;;;30.88;25.73
42725;BME280;28369;44.046;23.014;2023-04-22T12:38:00;100959.94;;;30.43;26.16
42725;BME280;28369;44.046;23.014;2023-04-22T12:40:26;100896.72;;;29.93;25.97
42725;BME280;28369;44.046;23.014;2023-04-22T12:42:52;101002.34;;;30.32;26.91
42725;BME280;28369;44.046;23.014;2023-04-22T12:45:17;100972.78;;;30.08;26.40
42725;BME280;28369;44.046;23.014;2023-04-22T12:47:43;101001.66;;;30.20;27.31
42725;BME280;28369;44.046;23.014;2023-04-22T12:50:10;101007.31;;;29.79;27.72
42725;BME280;28369;44.046;23.014;2023-04-22T12:52:35;101057.50;;;27.05;32.41
42725;BME280;28369;44.046;23.014;2023-04-22T12:55:01;101036.78;;;26.13;33.15